createdAt,value
2018-03-17T00:01:56.904Z,5.10
2018-03-17T00:04:24.401Z,5.10
2018-03-17T00:06:51.914Z,5.10
2018-03-17T00:09:20.173Z,5.10
2018-03-17T00:11:47.661Z,5.10
2018-03-17T00:14:15.159Z,5.10
2018-03-17T00:16:42.658Z,5.10
2018-03-17T00:19:10.939Z,5.00
2018-03-17T00:21:39.425Z,5.00
2018-03-17T00:24:07.683Z,5.10
2018-03-17T00:26:35.196Z,5.00
2018-03-17T00:29:02.687Z,5.20
2018-03-17T00:31:30.207Z,5.40
2018-03-17T00:33:57.691Z,5.40
2018-03-17T00:36:25.179Z,5.40
2018-03-17T00:38:52.691Z,5.40
2018-03-17T00:41:20.188Z,5.40
2018-03-17T00:43:47.712Z,5.50
2018-03-17T00:46:15.962Z,5.50
2018-03-17T00:48:44.210Z,5.40
2018-03-17T00:51:12.741Z,5.50
2018-03-17T00:53:40.224Z,5.50
2018-03-17T00:56:07.743Z,5.60
2018-03-17T00:58:35.235Z,5.50
2018-03-17T01:01:02.718Z,5.50
2018-03-17T01:03:30.227Z,5.60
2018-03-17T01:05:57.720Z,5.70
2018-03-17T01:08:25.223Z,5.70
2018-03-17T01:10:53.476Z,5.60
2018-03-17T01:13:20.963Z,5.50
2018-03-17T01:15:49.236Z,5.50
2018-03-17T01:18:17.494Z,5.50
2018-03-17T01:20:45.003Z,5.40
2018-03-17T01:23:12.522Z,5.30
2018-03-17T01:25:40.781Z,5.20
2018-03-17T01:28:08.286Z,5.10
2018-03-17T01:30:35.794Z,5.20
2018-03-17T01:33:03.299Z,5.20
2018-03-17T01:35:30.783Z,5.10
2018-03-17T01:37:58.278Z,5.20
2018-03-17T01:40:25.788Z,5.20
2018-03-17T01:42:53.297Z,5.20
2018-03-17T01:45:21.130Z,5.10
2018-03-17T01:47:48.619Z,5.10
2018-03-17T01:50:16.107Z,5.20
2018-03-17T01:52:44.599Z,5.30
2018-03-17T01:55:12.851Z,5.20
2018-03-17T01:57:40.351Z,5.10
2018-03-17T02:00:07.847Z,5.20
2018-03-17T02:02:35.363Z,5.20
2018-03-17T02:05:02.847Z,5.30
2018-03-17T02:07:30.335Z,5.20
2018-03-17T02:09:57.844Z,4.80
2018-03-17T02:12:25.335Z,4.80
2018-03-17T02:14:52.847Z,4.90
2018-03-17T02:17:21.117Z,4.90
2018-03-17T02:19:49.391Z,4.90
2018-03-17T02:22:17.667Z,4.80
2018-03-17T02:24:45.939Z,4.80
2018-03-17T02:27:14.224Z,4.80
2018-03-17T02:29:42.479Z,4.70
2018-03-17T02:32:09.969Z,4.60
2018-03-17T02:34:38.240Z,4.50
2018-03-17T02:37:06.511Z,4.40
2018-03-17T02:39:34.787Z,4.30
2018-03-17T02:42:03.060Z,4.40
2018-03-17T02:44:30.567Z,4.30
2018-03-17T02:46:58.085Z,4.40
2018-03-17T02:49:26.348Z,4.50
2018-03-17T02:51:53.896Z,4.40
2018-03-17T02:54:21.387Z,4.60
2018-03-17T02:56:49.641Z,4.70
2018-03-17T02:59:17.164Z,4.50
2018-03-17T03:01:44.876Z,4.80
2018-03-17T03:04:12.397Z,4.70
2018-03-17T03:06:39.884Z,4.60
2018-03-17T03:09:07.382Z,4.50
2018-03-17T03:11:34.897Z,4.40
2018-03-17T03:14:02.379Z,4.30
2018-03-17T03:16:30.664Z,4.00
2018-03-17T03:18:58.923Z,4.00
2018-03-17T03:21:26.417Z,3.90
2018-03-17T03:23:53.922Z,3.90
2018-03-17T03:26:21.420Z,3.80
2018-03-17T03:28:49.699Z,4.10
2018-03-17T03:31:17.960Z,4.10
2018-03-17T03:33:45.452Z,4.00
2018-03-17T03:36:12.961Z,4.00
2018-03-17T03:38:40.460Z,3.90
2018-03-17T03:41:08.733Z,3.80
2018-03-17T03:43:36.465Z,3.70
2018-03-17T03:46:03.971Z,3.90
2018-03-17T03:48:31.471Z,3.80
2018-03-17T03:50:59.211Z,3.80
2018-03-17T03:53:27.038Z,3.60
2018-03-17T03:55:55.303Z,3.50
2018-03-17T03:58:23.574Z,3.50
2018-03-17T04:00:51.084Z,3.40
2018-03-17T04:03:18.578Z,3.50
2018-03-17T04:05:46.098Z,3.40
2018-03-17T04:08:13.604Z,3.60
2018-03-17T04:10:41.099Z,3.60
2018-03-17T04:13:09.367Z,3.40
2018-03-17T04:15:37.631Z,3.50
2018-03-17T04:18:05.144Z,3.40
2018-03-17T04:20:32.673Z,3.50
2018-03-17T04:23:00.939Z,3.50
2018-03-17T04:25:29.222Z,3.50
2018-03-17T04:27:57.485Z,3.50
2018-03-17T04:30:24.995Z,3.40
2018-03-17T04:32:52.492Z,3.20
2018-03-17T04:35:19.979Z,3.30
2018-03-17T04:37:47.495Z,3.40
2018-03-17T04:40:14.982Z,3.30
2018-03-17T04:42:42.495Z,3.40
2018-03-17T04:45:09.983Z,3.60
2018-03-17T04:47:37.481Z,3.60
2018-03-17T04:50:05.810Z,3.50
2018-03-17T04:52:33.305Z,3.40
2018-03-17T04:55:01.584Z,3.50
2018-03-17T04:57:29.844Z,3.30
2018-03-17T04:59:57.358Z,3.30
2018-03-17T05:02:24.863Z,3.30
2018-03-17T05:04:52.350Z,3.30
2018-03-17T05:07:20.875Z,3.10
2018-03-17T05:09:48.372Z,3.00
2018-03-17T05:12:16.632Z,2.90
2018-03-17T05:14:44.143Z,2.70
2018-03-17T05:17:11.635Z,2.70
2018-03-17T05:19:39.150Z,2.90
2018-03-17T05:22:06.647Z,2.80
2018-03-17T05:24:34.148Z,2.60
2018-03-17T05:27:02.429Z,2.30
2018-03-17T05:29:29.931Z,2.20
2018-03-17T05:31:57.448Z,2.10
2018-03-17T05:34:25.704Z,1.90
2018-03-17T05:36:53.213Z,1.80
2018-03-17T05:39:20.735Z,1.90
2018-03-17T05:41:48.231Z,1.90
2018-03-17T05:44:15.788Z,1.90
2018-03-17T05:46:43.279Z,2.10
2018-03-17T05:49:10.792Z,2.00
2018-03-17T05:51:39.063Z,2.30
2018-03-17T05:54:07.325Z,2.00
2018-03-17T05:56:35.620Z,2.00
2018-03-17T05:59:03.875Z,1.90
2018-03-17T06:01:31.376Z,1.80
2018-03-17T06:03:58.900Z,1.80
2018-03-17T06:06:26.392Z,1.80
2018-03-17T06:08:53.927Z,1.80
2018-03-17T06:11:22.195Z,1.60
2018-03-17T06:13:49.694Z,1.50
2018-03-17T06:16:17.211Z,1.70
2018-03-17T06:18:44.712Z,1.60
2018-03-17T06:21:12.228Z,1.60
2018-03-17T06:23:39.742Z,1.50
2018-03-17T06:26:07.244Z,1.50
2018-03-17T06:28:34.760Z,1.50
2018-03-17T06:31:02.284Z,1.50
2018-03-17T06:33:31.427Z,1.60
2018-03-17T06:35:58.954Z,1.50
2018-03-17T06:38:26.448Z,1.50
2018-03-17T06:40:53.974Z,1.70
2018-03-17T06:43:21.476Z,1.90
2018-03-17T06:45:48.988Z,1.80
2018-03-17T06:48:16.481Z,1.60
2018-03-17T06:50:44.020Z,1.60
2018-03-17T06:53:11.540Z,1.70
2018-03-17T06:55:39.040Z,1.50
2018-03-17T06:58:06.568Z,1.50
2018-03-17T07:00:34.839Z,1.50
2018-03-17T07:03:02.340Z,1.40
2018-03-17T07:05:29.852Z,1.40
2018-03-17T07:07:57.359Z,1.40
2018-03-17T07:10:24.894Z,1.40
2018-03-17T07:12:53.162Z,1.50
2018-03-17T07:15:21.428Z,1.50
2018-03-17T07:17:48.947Z,1.40
2018-03-17T07:20:16.590Z,1.50
2018-03-17T07:22:44.142Z,1.50
2018-03-17T07:25:11.840Z,1.50
2018-03-17T07:27:39.418Z,1.50
2018-03-17T07:30:06.940Z,1.30
2018-03-17T07:32:34.440Z,1.30
2018-03-17T07:35:01.953Z,1.40
2018-03-17T07:37:29.452Z,1.40
2018-03-17T07:39:56.959Z,1.30
2018-03-17T07:42:25.240Z,1.20
2018-03-17T07:44:52.772Z,1.10
2018-03-17T07:47:20.289Z,1.20
2018-03-17T07:49:48.648Z,1.20
2018-03-17T07:52:16.152Z,1.10
2018-03-17T07:54:43.675Z,1.10
2018-03-17T07:57:11.174Z,1.00
2018-03-17T07:59:38.704Z,1.00
2018-03-17T08:02:06.212Z,1.00
2018-03-17T08:04:33.708Z,1.00
2018-03-17T08:07:01.237Z,1.00
2018-03-17T08:09:29.492Z,0.90
2018-03-17T08:11:57.009Z,0.80
2018-03-17T08:14:24.525Z,1.00
2018-03-17T08:16:52.048Z,1.00
2018-03-17T08:19:19.587Z,1.00
2018-03-17T08:21:47.113Z,0.90
2018-03-17T08:24:15.400Z,0.90
2018-03-17T08:26:43.685Z,1.00
2018-03-17T08:29:11.203Z,0.80
2018-03-17T08:31:38.723Z,0.90
2018-03-17T08:34:06.252Z,0.90
2018-03-17T08:36:34.540Z,0.90
2018-03-17T08:39:02.804Z,0.90
2018-03-17T08:41:31.076Z,0.80
2018-03-17T08:43:59.369Z,1.00
2018-03-17T08:46:26.868Z,0.90
2018-03-17T08:48:54.384Z,1.10
2018-03-17T08:51:22.648Z,1.30
2018-03-17T08:53:50.908Z,1.10
2018-03-17T08:56:18.493Z,1.00
2018-03-17T08:58:46.774Z,1.20
2018-03-17T09:01:15.056Z,1.20
2018-03-17T09:03:43.327Z,1.00
2018-03-17T09:06:11.592Z,1.00
2018-03-17T09:08:39.104Z,0.90
2018-03-17T09:11:06.600Z,1.10
2018-03-17T09:13:34.126Z,1.20
2018-03-17T09:16:01.630Z,1.10
2018-03-17T09:18:29.123Z,1.00
2018-03-17T09:20:56.661Z,0.90
2018-03-17T09:23:24.915Z,1.00
2018-03-17T09:25:52.432Z,0.90
2018-03-17T09:28:19.929Z,0.90
2018-03-17T09:30:47.451Z,1.00
2018-03-17T09:33:14.966Z,1.00
2018-03-17T09:35:42.465Z,1.00
2018-03-17T09:38:09.976Z,0.90
2018-03-17T09:40:37.479Z,0.80
2018-03-17T09:43:04.968Z,0.80
2018-03-17T09:45:32.489Z,0.90
2018-03-17T09:48:00.045Z,0.90
2018-03-17T09:50:27.575Z,1.00
2018-03-17T09:52:55.101Z,1.00
2018-03-17T09:55:22.595Z,1.00
2018-03-17T09:57:50.870Z,0.80
2018-03-17T10:00:18.378Z,0.80
2018-03-17T10:02:45.918Z,0.90
2018-03-17T10:05:14.232Z,0.90
2018-03-17T10:07:41.741Z,0.80
2018-03-17T10:10:10.015Z,0.60
2018-03-17T10:12:37.537Z,0.60
2018-03-17T10:15:05.056Z,0.70
2018-03-17T10:17:32.552Z,0.80
2018-03-17T10:20:00.047Z,1.00
2018-03-17T10:22:27.555Z,0.90
2018-03-17T10:24:56.014Z,0.80
2018-03-17T10:27:23.584Z,0.70
2018-03-17T10:29:51.092Z,0.50
2018-03-17T10:32:18.598Z,0.40
2018-03-17T10:34:46.124Z,0.40
2018-03-17T10:37:13.625Z,0.40
2018-03-17T10:39:41.145Z,0.40
2018-03-17T10:42:08.657Z,0.30
2018-03-17T10:44:36.174Z,0.30
2018-03-17T10:47:04.469Z,0.50
2018-03-17T10:49:32.728Z,0.50
2018-03-17T10:52:01.020Z,0.40
2018-03-17T10:54:28.520Z,0.30
2018-03-17T10:56:56.022Z,0.40
2018-03-17T10:59:24.308Z,0.40
2018-03-17T11:01:52.563Z,0.40
2018-03-17T11:04:20.079Z,0.30
2018-03-17T11:06:47.576Z,0.50
2018-03-17T11:09:15.067Z,0.50
2018-03-17T11:11:44.307Z,0.50
2018-03-17T11:14:11.811Z,0.40
2018-03-17T11:16:40.092Z,0.60
2018-03-17T11:19:08.359Z,0.60
2018-03-17T11:21:35.960Z,0.60
2018-03-17T11:24:03.472Z,0.70
2018-03-17T11:26:30.971Z,0.80
2018-03-17T11:28:58.497Z,0.90
2018-03-17T11:31:26.003Z,0.80
2018-03-17T11:33:53.575Z,0.80
2018-03-17T11:36:21.843Z,0.60
2018-03-17T11:38:49.343Z,0.50
2018-03-17T11:41:16.872Z,0.70
2018-03-17T11:43:44.355Z,0.70
2018-03-17T11:46:11.841Z,0.70
2018-03-17T11:48:40.333Z,0.80
2018-03-17T11:51:08.591Z,0.90
2018-03-17T11:53:36.108Z,0.80
2018-03-17T11:56:03.611Z,1.00
2018-03-17T11:58:31.104Z,1.20
2018-03-17T12:00:58.629Z,1.10
2018-03-17T12:03:26.234Z,1.10
2018-03-17T12:05:53.756Z,1.00
2018-03-17T12:08:22.019Z,1.00
2018-03-17T12:10:49.518Z,0.90
2018-03-17T12:13:17.040Z,1.00
2018-03-17T12:15:44.547Z,1.10
2018-03-17T12:18:12.069Z,1.10
2018-03-17T12:20:39.557Z,1.00
2018-03-17T12:23:07.054Z,1.00
2018-03-17T12:25:34.580Z,1.30
2018-03-17T12:28:02.083Z,1.20
2018-03-17T12:30:29.608Z,1.20
2018-03-17T12:32:57.113Z,1.00
2018-03-17T12:35:24.626Z,0.90
2018-03-17T12:37:52.145Z,0.90
2018-03-17T12:40:21.709Z,0.70
2018-03-17T12:42:48.733Z,0.60
2018-03-17T12:45:16.241Z,0.50
2018-03-17T12:47:43.736Z,0.60
2018-03-17T12:50:12.015Z,0.70
2018-03-17T12:52:39.540Z,0.60
2018-03-17T12:55:07.061Z,0.70
2018-03-17T12:57:34.557Z,0.70
2018-03-17T13:00:02.074Z,0.80
2018-03-17T13:02:29.591Z,0.80
2018-03-17T13:04:57.871Z,0.90
2018-03-17T13:07:26.160Z,0.80
2018-03-17T13:09:54.453Z,0.70
2018-03-17T13:12:21.944Z,0.60
2018-03-17T13:14:49.458Z,0.50
2018-03-17T13:17:16.962Z,0.40
2018-03-17T13:19:44.477Z,0.50
2018-03-17T13:22:12.744Z,0.80
2018-03-17T13:24:41.027Z,0.80
2018-03-17T13:27:21.180Z,0.90
2018-03-17T13:29:48.685Z,0.80
2018-03-17T13:32:28.099Z,0.70
2018-03-17T13:34:55.616Z,0.70
2018-03-17T13:37:31.846Z,0.70
2018-03-17T13:39:59.386Z,0.60
2018-03-17T13:42:26.884Z,0.60
2018-03-17T13:44:54.385Z,0.70
2018-03-17T13:47:22.662Z,0.60
2018-03-17T13:49:50.932Z,0.70
2018-03-17T13:52:19.216Z,0.60
2018-03-17T13:54:47.473Z,0.60
2018-03-17T13:57:14.978Z,0.50
2018-03-17T13:59:42.499Z,0.60
2018-03-17T14:02:10.780Z,0.50
2018-03-17T14:04:39.085Z,0.50
2018-03-17T14:07:06.593Z,0.40
2018-03-17T14:09:34.090Z,0.40
2018-03-17T14:12:01.616Z,0.40
2018-03-17T14:14:29.128Z,0.40
2018-03-17T14:16:56.665Z,0.50
2018-03-17T14:19:24.161Z,0.50
2018-03-17T14:21:51.663Z,0.50
2018-03-17T14:24:19.188Z,0.50
2018-03-17T14:26:46.712Z,0.40
2018-03-17T14:29:15.014Z,0.40
2018-03-17T14:31:42.512Z,0.30
2018-03-17T14:34:10.016Z,0.40
2018-03-17T14:36:37.557Z,0.50
2018-03-17T14:39:05.898Z,0.40
2018-03-17T14:41:33.439Z,0.30
2018-03-17T14:44:00.940Z,0.40
2018-03-17T14:46:28.445Z,0.40
2018-03-17T14:48:55.977Z,0.40
2018-03-17T14:51:24.240Z,0.30
2018-03-17T14:53:51.760Z,0.20
2018-03-17T14:56:19.255Z,0.30
2018-03-17T14:58:46.765Z,0.20
2018-03-17T15:01:14.280Z,0.20
2018-03-17T15:03:42.547Z,0.30
2018-03-17T15:06:10.088Z,0.20
2018-03-17T15:08:37.580Z,0.20
2018-03-17T15:11:05.853Z,0.20
2018-03-17T15:13:34.146Z,0.30
2018-03-17T15:16:01.661Z,0.20
2018-03-17T15:18:29.181Z,0.20
2018-03-17T15:20:56.694Z,0.20
2018-03-17T15:23:24.204Z,0.10
2018-03-17T15:25:51.735Z,0.10
2018-03-17T15:28:20.008Z,0.20
2018-03-17T15:30:48.301Z,0.30
2018-03-17T15:33:16.555Z,0.20
2018-03-17T15:35:44.057Z,0.10
2018-03-17T15:38:11.572Z,0.10
2018-03-17T15:40:39.068Z,0.10
2018-03-17T15:43:06.622Z,0.00
2018-03-17T15:45:34.163Z,0.00
2018-03-17T15:48:02.444Z,-0.10
2018-03-17T15:50:29.975Z,-0.20
2018-03-17T15:52:57.614Z,-0.10
2018-03-17T15:55:25.143Z,-0.10
2018-03-17T15:57:52.685Z,-0.10
2018-03-17T16:00:20.959Z,-0.20
2018-03-17T16:02:49.264Z,-0.20
2018-03-17T16:05:16.766Z,-0.40
2018-03-17T16:07:44.309Z,-0.30
2018-03-17T16:10:11.816Z,-0.40
2018-03-17T16:12:40.117Z,-0.40
2018-03-17T16:15:07.651Z,-0.50
2018-03-17T16:17:35.916Z,-0.40
2018-03-17T16:20:03.448Z,-0.40
2018-03-17T16:22:31.032Z,-0.40
2018-03-17T16:24:58.659Z,-0.50
2018-03-17T16:27:26.190Z,-0.40
2018-03-17T16:29:53.693Z,-0.50
2018-03-17T16:32:21.258Z,-0.50
2018-03-17T16:34:48.744Z,-0.60
2018-03-17T16:37:16.246Z,-0.60
2018-03-17T16:39:43.782Z,-0.50
2018-03-17T16:42:12.063Z,-0.50
2018-03-17T16:44:40.392Z,-0.40
2018-03-17T16:47:07.913Z,-0.50
2018-03-17T16:49:35.430Z,-0.40
2018-03-17T16:52:02.965Z,-0.30
2018-03-17T16:54:30.552Z,-0.40
2018-03-17T16:56:59.131Z,-0.40
2018-03-17T16:59:26.671Z,-0.60
2018-03-17T17:01:54.243Z,-0.60
2018-03-17T17:04:21.846Z,-0.80
2018-03-17T17:06:50.137Z,-0.60
2018-03-17T17:09:17.879Z,-0.70
2018-03-17T17:11:46.153Z,-0.70
2018-03-17T17:14:13.691Z,-0.70
2018-03-17T17:16:41.233Z,-0.70
2018-03-17T17:19:08.740Z,-0.60
2018-03-17T17:21:37.027Z,-0.70
2018-03-17T17:24:04.540Z,-0.80
2018-03-17T17:26:32.048Z,-0.80
2018-03-17T17:28:59.583Z,-0.80
2018-03-17T17:31:27.094Z,-0.90
2018-03-17T17:33:54.637Z,-0.90
2018-03-17T17:36:22.151Z,-0.80
2018-03-17T17:38:49.661Z,-0.80
2018-03-17T17:41:17.188Z,-0.80
2018-03-17T17:43:45.454Z,-0.90
2018-03-17T17:46:12.977Z,-1.00
2018-03-17T17:48:40.493Z,-0.80
2018-03-17T17:51:08.755Z,-0.80
2018-03-17T17:53:36.269Z,-0.90
2018-03-17T17:56:03.781Z,-0.80
2018-03-17T17:58:32.067Z,-0.90
2018-03-17T18:01:00.327Z,-0.90
2018-03-17T18:03:27.825Z,-1.00
2018-03-17T18:05:55.360Z,-1.00
2018-03-17T18:08:23.627Z,-1.00
2018-03-17T18:10:51.916Z,-1.00
2018-03-17T18:13:20.224Z,-0.90
2018-03-17T18:15:47.721Z,-1.00
2018-03-17T18:18:15.248Z,-0.90
2018-03-17T18:20:42.784Z,-0.90
2018-03-17T18:23:10.304Z,-0.90
2018-03-17T18:25:37.875Z,-1.00
2018-03-17T18:28:05.372Z,-1.00
2018-03-17T18:30:32.905Z,-1.00
2018-03-17T18:33:01.215Z,-1.10
2018-03-17T18:35:28.752Z,-1.20
2018-03-17T18:37:57.018Z,-1.20
2018-03-17T18:40:25.295Z,-1.10
2018-03-17T18:42:53.606Z,-0.90
2018-03-17T18:45:21.146Z,-1.00
2018-03-17T18:47:49.474Z,-1.10
2018-03-17T18:50:16.972Z,-1.20
2018-03-17T18:52:44.488Z,-1.20
2018-03-17T18:55:12.014Z,-1.20
2018-03-17T18:57:39.524Z,-1.20
2018-03-17T19:00:07.051Z,-1.20
2018-03-17T19:02:34.548Z,-1.10
2018-03-17T19:05:02.048Z,-1.10
2018-03-17T19:07:29.576Z,-1.20
2018-03-17T19:09:57.084Z,-1.20
2018-03-17T19:12:24.633Z,-1.20
2018-03-17T19:14:52.137Z,-1.30
2018-03-17T19:17:19.651Z,-1.40
2018-03-17T19:19:47.153Z,-1.40
2018-03-17T19:22:14.652Z,-1.40
2018-03-17T19:24:42.944Z,-1.40
2018-03-17T19:27:10.453Z,-1.50
2018-03-17T19:29:37.983Z,-1.30
2018-03-17T19:32:05.484Z,-1.20
2018-03-17T19:34:32.996Z,-1.30
2018-03-17T19:37:00.527Z,-1.30
2018-03-17T19:39:28.797Z,-1.30
2018-03-17T19:41:56.335Z,-1.50
2018-03-17T19:44:23.906Z,-1.40
2018-03-17T19:46:51.403Z,-1.40
2018-03-17T19:49:18.942Z,-1.30
2018-03-17T19:51:47.212Z,-1.50
2018-03-17T19:54:14.766Z,-1.60
2018-03-17T19:56:42.288Z,-1.50
2018-03-17T19:59:09.795Z,-1.50
2018-03-17T20:01:37.324Z,-1.40
2018-03-17T20:04:04.859Z,-1.50
2018-03-17T20:06:32.378Z,-1.50
2018-03-17T20:09:00.644Z,-1.60
2018-03-17T20:11:28.917Z,-1.60
2018-03-17T20:13:57.474Z,-1.70
2018-03-17T20:16:24.977Z,-1.80
2018-03-17T20:18:53.277Z,-1.60
2018-03-17T20:21:20.779Z,-1.70
2018-03-17T20:23:48.293Z,-1.60
2018-03-17T20:26:15.848Z,-1.50
2018-03-17T20:28:44.115Z,-1.60
2018-03-17T20:31:12.409Z,-1.70
2018-03-17T20:33:39.918Z,-1.70
2018-03-17T20:36:07.416Z,-1.70
2018-03-17T20:38:35.720Z,-1.80
2018-03-17T20:41:03.221Z,-1.90
2018-03-17T20:43:30.754Z,-1.70
2018-03-17T20:45:58.272Z,-1.80
2018-03-17T20:48:25.775Z,-1.80
2018-03-17T20:50:53.312Z,-1.80
2018-03-17T20:53:20.816Z,-1.90
2018-03-17T20:55:48.336Z,-1.90
2018-03-17T20:58:15.870Z,-1.90
2018-03-17T21:00:44.143Z,-2.00
2018-03-17T21:03:12.432Z,-2.00
2018-03-17T21:05:39.930Z,-2.10
2018-03-17T21:08:07.443Z,-2.00
2018-03-17T21:10:35.722Z,-2.00
2018-03-17T21:13:03.985Z,-2.20
2018-03-17T21:15:32.471Z,-2.10
2018-03-17T21:18:00.234Z,-2.20
2018-03-17T21:20:28.722Z,-2.20
2018-03-17T21:22:57.058Z,-2.10
2018-03-17T21:25:24.758Z,-2.20
2018-03-17T21:27:52.419Z,-2.10
2018-03-17T21:30:20.928Z,-2.30
2018-03-17T21:32:48.495Z,-2.40
2018-03-17T21:35:16.004Z,-2.30
2018-03-17T21:37:43.509Z,-2.30
2018-03-17T21:40:11.070Z,-2.40
2018-03-17T21:42:38.625Z,-2.40
2018-03-17T21:45:06.136Z,-2.40
2018-03-17T21:47:33.644Z,-2.40
2018-03-17T21:50:01.144Z,-2.50
2018-03-17T21:52:28.921Z,-2.40
2018-03-17T21:54:56.393Z,-2.40
2018-03-17T21:57:23.916Z,-2.50
2018-03-17T21:59:51.583Z,-2.50
2018-03-17T22:02:19.287Z,-2.50
2018-03-17T22:04:46.953Z,-2.60
2018-03-17T22:07:15.331Z,-2.70
2018-03-17T22:09:43.891Z,-2.60
2018-03-17T22:12:11.566Z,-2.80
2018-03-17T22:14:39.984Z,-2.70
2018-03-17T22:17:07.614Z,-2.80
2018-03-17T22:19:35.902Z,-2.80
2018-03-17T22:22:04.188Z,-2.70
2018-03-17T22:24:32.456Z,-2.70
2018-03-17T22:27:00.728Z,-2.80
2018-03-17T22:29:28.255Z,-2.90
2018-03-17T22:31:55.784Z,-2.80
2018-03-17T22:34:23.294Z,-2.80
2018-03-17T22:36:50.790Z,-2.80
2018-03-17T22:39:19.067Z,-2.80
2018-03-17T22:41:47.344Z,-2.80
2018-03-17T22:44:15.608Z,-2.80
2018-03-17T22:46:43.898Z,-2.80
2018-03-17T22:49:12.187Z,-2.90
2018-03-17T22:51:39.694Z,-3.00
2018-03-17T22:54:07.257Z,-2.90
2018-03-17T22:56:34.752Z,-3.00
2018-03-17T22:59:02.299Z,-3.00
2018-03-17T23:01:30.563Z,-3.10
2018-03-17T23:03:58.059Z,-3.20
2018-03-17T23:06:25.588Z,-3.10
2018-03-17T23:08:53.100Z,-3.10
2018-03-17T23:11:20.629Z,-3.10
2018-03-17T23:13:48.907Z,-3.10
2018-03-17T23:16:17.176Z,-3.20
2018-03-17T23:18:45.512Z,-3.20
2018-03-17T23:21:13.047Z,-3.40
2018-03-17T23:23:41.009Z,-3.20
2018-03-17T23:26:08.518Z,-3.20
2018-03-17T23:28:36.016Z,-3.20
2018-03-17T23:31:03.530Z,-3.20
2018-03-17T23:33:31.028Z,-3.20
2018-03-17T23:35:59.312Z,-3.20
2018-03-17T23:38:26.807Z,-3.40
2018-03-17T23:40:54.300Z,-3.30
2018-03-17T23:43:21.818Z,-3.30
2018-03-17T23:45:49.317Z,-3.30
2018-03-17T23:48:16.849Z,-3.30
2018-03-17T23:50:44.356Z,-3.30
2018-03-17T23:53:12.623Z,-3.20
2018-03-17T23:55:40.922Z,-3.20
2018-03-17T23:58:08.412Z,-3.30
